Time;durP1;ratioP1;P1;durP2;ratioP2;P2;SDS_P1;SDS_P2;PMS_P1;PMS_P2;Temp;Humidity;BMP_temperature;BMP_pressure;BME280_temperature;BME280_humidity;BME280_pressure;Samples;Min_cycle;Max_cycle;Signal;HPM_P1;HPM_P2
2022/11/16 00:00:19;;;;;;;5.80;2.88;;;12.40;99.90;;;;;;5062148;28;20062;-86
2022/11/16 00:02:44;;;;;;;8.43;3.10;;;12.40;99.90;;;;;;5071038;28;20124;-86
2022/11/16 00:05:10;;;;;;;9.23;3.22;;;12.40;99.90;;;;;;5061203;28;20056;-88
2022/11/16 00:07:36;;;;;;;5.25;2.20;;;12.40;99.90;;;;;;5061240;28;20024;-84
2022/11/16 00:10:05;;;;;;;8.85;2.83;;;12.40;99.90;;;;;;5059734;28;20090;-82
2022/11/16 00:12:30;;;;;;;5.95;2.75;;;12.30;99.90;;;;;;5061094;28;20029;-87
2022/11/16 00:14:56;;;;;;;7.55;2.80;;;12.30;99.90;;;;;;5065401;28;20032;-90
2022/11/16 00:17:22;;;;;;;8.40;2.80;;;12.40;99.90;;;;;;5058071;28;20041;-88
2022/11/16 00:19:47;;;;;;;6.03;2.40;;;12.30;99.90;;;;;;5060562;28;20021;-87
2022/11/16 00:22:13;;;;;;;8.80;2.92;;;12.30;99.90;;;;;;5059295;28;20067;-87
2022/11/16 00:24:38;;;;;;;7.32;2.92;;;12.30;99.90;;;;;;5060732;28;20049;-89
2022/11/16 00:27:04;;;;;;;5.03;3.10;;;12.30;99.90;;;;;;5069100;28;20027;-87
2022/11/16 00:29:29;;;;;;;5.55;3.28;;;12.30;99.90;;;;;;5060043;28;20044;-88
2022/11/16 00:31:55;;;;;;;8.07;2.95;;;12.30;99.90;;;;;;5060221;28;20025;-88
2022/11/16 00:34:22;;;;;;;7.90;2.47;;;12.30;99.90;;;;;;5064479;28;20035;-84
2022/11/16 00:36:48;;;;;;;6.70;2.40;;;12.30;99.90;;;;;;5060578;28;20102;-87
2022/11/16 00:39:15;;;;;;;6.05;3.08;;;12.20;99.90;;;;;;5054307;28;20482;-86
2022/11/16 00:41:41;;;;;;;8.57;2.60;;;12.20;99.90;;;;;;5050531;28;20645;-88
2022/11/16 00:44:07;;;;;;;4.22;2.70;;;12.20;99.90;;;;;;5068580;28;20043;-83
2022/11/16 00:46:33;;;;;;;8.98;3.22;;;12.20;99.90;;;;;;5061248;28;20112;-93
2022/11/16 00:48:58;;;;;;;6.60;3.30;;;12.20;99.90;;;;;;5059289;28;20060;-88
2022/11/16 00:51:24;;;;;;;4.40;2.30;;;12.20;99.90;;;;;;5060378;28;20096;-88
2022/11/16 00:53:50;;;;;;;7.03;3.15;;;12.10;99.90;;;;;;5060582;28;20029;-86
2022/11/16 00:56:15;;;;;;;9.65;3.13;;;12.10;99.90;;;;;;5060445;28;20041;-89
2022/11/16 00:58:41;;;;;;;7.53;2.75;;;12.20;99.90;;;;;;5060465;28;20431;-88
2022/11/16 01:01:08;;;;;;;6.20;3.20;;;12.20;99.90;;;;;;5060462;28;20067;-86
2022/11/16 01:03:35;;;;;;;11.55;4.88;;;12.10;99.90;;;;;;5059599;28;20074;-88
2022/11/16 01:06:06;;;;;;;9.45;2.50;;;12.10;99.90;;;;;;5060687;28;20056;-88
2022/11/16 01:08:32;;;;;;;8.10;2.90;;;12.10;99.90;;;;;;5056850;28;20087;-88
2022/11/16 01:12:07;;;;;;;9.85;3.22;;;12.10;99.90;;;;;;5063483;28;20028;-87
2022/11/16 01:13:43;;;;;;;5.63;2.97;;;12.10;99.90;;;;;;5059232;28;20040;-87
2022/11/16 01:16:13;;;;;;;5.32;2.47;;;12.10;99.90;;;;;;5063161;28;20461;-90
2022/11/16 01:18:39;;;;;;;5.82;3.25;;;12.10;99.90;;;;;;5059320;28;20375;-88
2022/11/16 01:21:05;;;;;;;6.63;3.35;;;12.10;99.90;;;;;;5059244;28;20024;-84
2022/11/16 01:23:32;;;;;;;7.35;2.97;;;12.00;99.90;;;;;;5066299;28;20033;-87
2022/11/16 01:26:00;;;;;;;10.15;3.08;;;12.00;99.90;;;;;;5065964;28;20077;-90
2022/11/16 01:28:27;;;;;;;4.45;2.85;;;12.00;99.90;;;;;;5060400;28;20478;-86
2022/11/16 01:30:53;;;;;;;5.30;2.88;;;12.00;99.90;;;;;;5062931;28;20052;-88
2022/11/16 01:33:18;;;;;;;6.15;2.65;;;12.00;99.90;;;;;;5063389;28;20452;-87
2022/11/16 01:35:44;;;;;;;6.90;2.88;;;12.10;99.90;;;;;;5059516;28;20025;-88
2022/11/16 01:38:10;;;;;;;7.82;3.13;;;12.10;99.90;;;;;;5057333;28;20493;-87
2022/11/16 01:40:36;;;;;;;8.38;2.35;;;12.10;99.90;;;;;;5069210;28;20020;-90
2022/11/16 01:43:01;;;;;;;6.53;2.83;;;12.20;99.90;;;;;;5064852;28;20033;-87
2022/11/16 01:45:36;;;;;;;7.30;3.30;;;12.20;99.90;;;;;;5058337;28;20036;-88
2022/11/16 01:48:02;;;;;;;4.88;2.83;;;12.20;99.90;;;;;;5063282;28;20401;-88
2022/11/16 01:50:28;;;;;;;6.70;2.90;;;12.20;99.90;;;;;;5058839;28;20032;-88
2022/11/16 01:52:58;;;;;;;11.18;2.90;;;12.20;99.90;;;;;;5059067;28;20268;-89
2022/11/16 01:55:28;;;;;;;13.32;2.83;;;12.20;99.90;;;;;;5059428;28;20089;-88
2022/11/16 01:57:55;;;;;;;9.25;2.80;;;12.20;99.90;;;;;;5058679;28;20036;-87
2022/11/16 02:00:21;;;;;;;5.65;2.50;;;12.20;99.90;;;;;;5060408;28;20496;-83
2022/11/16 02:02:46;;;;;;;8.27;2.70;;;12.20;99.90;;;;;;5056981;28;20151;-87
2022/11/16 02:05:18;;;;;;;8.75;3.70;;;12.20;99.90;;;;;;5063419;28;20435;-87
2022/11/16 02:11:10;;;;;;;12.27;5.72;;;12.10;99.90;;;;;;5061867;28;20247;-87
2022/11/16 02:13:47;;;;;;;17.33;8.13;;;12.00;99.90;;;;;;5068433;28;20025;-86
2022/11/16 02:16:25;;;;;;;13.10;8.32;;;11.80;99.90;;;;;;5058888;28;20111;-88
2022/11/16 02:19:28;;;;;;;13.75;8.98;;;11.60;99.90;;;;;;5058326;28;20043;-86
2022/11/16 02:22:06;;;;;;;13.95;6.82;;;11.30;99.90;;;;;;5057931;28;20371;-88
2022/11/16 02:24:50;;;;;;;12.02;8.43;;;11.20;99.90;;;;;;5057433;28;20059;-83
2022/11/16 02:27:50;;;;;;;24.75;10.50;;;10.90;99.90;;;;;;5057969;28;20025;-88
2022/11/16 02:30:18;;;;;;;18.45;8.50;;;10.70;99.90;;;;;;5039728;28;20049;-88
2022/11/16 02:33:07;;;;;;;13.55;7.57;;;10.60;99.90;;;;;;5057729;28;20395;-87
2022/11/16 02:35:39;;;;;;;25.50;9.23;;;10.50;99.90;;;;;;5061920;28;20465;-88
2022/11/16 02:38:19;;;;;;;19.52;9.07;;;10.40;99.90;;;;;;5068150;28;20033;-85
2022/11/16 02:40:50;;;;;;;19.00;9.88;;;10.40;99.90;;;;;;5058710;28;20107;-88
2022/11/16 02:43:33;;;;;;;19.67;12.25;;;10.20;99.90;;;;;;5057745;28;20048;-88
2022/11/16 02:46:04;;;;;;;21.65;10.18;;;10.20;99.90;;;;;;5057432;28;20021;-87
2022/11/16 02:48:35;;;;;;;20.42;12.27;;;10.20;99.90;;;;;;5057258;28;20086;-87
2022/11/16 02:51:02;;;;;;;26.17;12.48;;;10.10;99.90;;;;;;5057988;28;20035;-88
2022/11/16 02:53:36;;;;;;;20.95;12.25;;;10.10;99.90;;;;;;5057825;28;20083;-88
2022/11/16 02:56:02;;;;;;;24.20;12.00;;;10.10;99.90;;;;;;5057620;28;20032;-87
2022/11/16 02:58:28;;;;;;;20.88;11.57;;;10.00;99.90;;;;;;5057655;28;20025;-88
2022/11/16 03:00:59;;;;;;;20.42;11.90;;;10.00;99.90;;;;;;5060736;28;20413;-87
2022/11/16 03:03:37;;;;;;;18.55;11.07;;;9.90;99.90;;;;;;5067098;28;20024;-88
2022/11/16 03:06:16;;;;;;;17.88;9.65;;;9.90;99.90;;;;;;5059434;28;20048;-88
2022/11/16 03:09:00;;;;;;;16.02;9.73;;;9.90;99.90;;;;;;5052182;28;20467;-82
2022/11/16 03:14:15;;;;;;;20.83;10.95;;;9.90;99.90;;;;;;5067576;28;20563;-87
2022/11/16 03:16:44;;;;;;;20.98;10.73;;;9.90;99.90;;;;;;5059629;28;20029;-88
2022/11/16 03:19:13;;;;;;;18.30;10.52;;;9.90;99.90;;;;;;5056521;28;20033;-88
2022/11/16 03:21:46;;;;;;;20.10;9.57;;;9.90;99.90;;;;;;5057940;28;20474;-87
2022/11/16 03:24:12;;;;;;;21.45;10.70;;;9.90;99.90;;;;;;5057727;28;20025;-88
2022/11/16 03:27:03;;;;;;;14.60;9.15;;;9.90;99.90;;;;;;5058200;28;20028;-87
2022/11/16 03:29:35;;;;;;;17.50;10.48;;;9.80;99.90;;;;;;5067418;28;20040;-88
2022/11/16 03:32:28;;;;;;;16.02;9.73;;;9.80;99.90;;;;;;5066986;28;20016;-86
2022/11/16 03:35:01;;;;;;;15.35;9.68;;;9.80;99.90;;;;;;5062889;28;20095;-88
2022/11/16 03:37:27;;;;;;;23.95;12.13;;;9.80;99.90;;;;;;5067064;28;20378;-88
2022/11/16 03:39:55;;;;;;;20.30;10.68;;;9.80;99.90;;;;;;5067550;28;20032;-88
2022/11/16 03:42:22;;;;;;;19.67;11.95;;;9.80;99.90;;;;;;5053722;28;20033;-88
2022/11/16 03:44:49;;;;;;;17.25;10.10;;;9.80;99.90;;;;;;5061139;28;20143;-87
2022/11/16 03:47:14;;;;;;;16.05;9.48;;;9.70;99.90;;;;;;5061504;28;20028;-88
2022/11/16 03:49:44;;;;;;;18.20;10.57;;;9.80;99.90;;;;;;5058624;28;20477;-88
2022/11/16 03:52:11;;;;;;;17.17;10.43;;;9.70;99.90;;;;;;5061080;28;20024;-88
2022/11/16 03:54:36;;;;;;;17.50;10.68;;;9.70;99.90;;;;;;5067245;28;20027;-87
2022/11/16 03:57:02;;;;;;;16.50;9.55;;;9.70;99.90;;;;;;5056947;28;20040;-88
2022/11/16 03:59:27;;;;;;;25.98;13.13;;;9.70;99.90;;;;;;5057717;28;20482;-88
2022/11/16 04:01:53;;;;;;;22.48;12.48;;;9.70;99.90;;;;;;5061023;28;20098;-87
2022/11/16 04:26:12;;;;;;;36.22;17.00;;;9.40;99.90;;;;;;5060682;28;20130;-87
2022/11/16 04:28:39;;;;;;;26.33;16.25;;;9.40;99.90;;;;;;5070524;28;20086;-87
2022/11/16 04:39:24;;;;;;;33.55;18.67;;;9.20;99.90;;;;;;5069167;28;20512;-82
2022/11/16 04:47:19;;;;;;;35.97;18.23;;;8.90;99.90;;;;;;5061882;28;20040;-84
2022/11/16 04:49:45;;;;;;;36.15;19.92;;;8.90;99.90;;;;;;5069966;28;20048;-88
2022/11/16 04:52:11;;;;;;;32.78;18.70;;;8.90;99.90;;;;;;5068960;28;20086;-86
2022/11/16 04:54:36;;;;;;;29.55;17.58;;;8.80;99.90;;;;;;5063878;28;20397;-86
2022/11/16 04:57:02;;;;;;;31.10;17.73;;;8.70;99.90;;;;;;5064056;28;20035;-88
2022/11/16 04:59:28;;;;;;;29.85;19.10;;;8.70;99.90;;;;;;5059615;28;20052;-88
2022/11/16 05:02:09;;;;;;;33.67;18.52;;;8.60;99.90;;;;;;5059392;28;20032;-87
2022/11/16 05:04:40;;;;;;;41.55;20.35;;;8.60;99.90;;;;;;5066310;28;20035;-88
2022/11/16 05:07:09;;;;;;;29.52;16.98;;;8.60;99.90;;;;;;5059900;28;20024;-87
2022/11/16 05:09:44;;;;;;;33.22;19.92;;;8.50;99.90;;;;;;5054671;28;20047;-86
2022/11/16 05:12:13;;;;;;;32.35;17.98;;;8.50;99.90;;;;;;5061139;28;20048;-88
2022/11/16 05:14:39;;;;;;;34.03;19.23;;;8.50;99.90;;;;;;5069564;28;20111;-88
2022/11/16 05:17:07;;;;;;;39.42;19.98;;;8.50;99.90;;;;;;5069456;28;20036;-87
2022/11/16 05:22:16;;;;;;;29.33;18.73;;;8.40;99.90;;;;;;5068161;28;20500;-88
2022/11/16 05:24:42;;;;;;;30.25;17.52;;;8.30;99.90;;;;;;5058923;28;20041;-88
2022/11/16 05:27:11;;;;;;;32.83;18.55;;;8.30;99.90;;;;;;5058668;28;20035;-88
2022/11/16 05:29:37;;;;;;;35.45;20.55;;;8.30;99.90;;;;;;5059666;28;20040;-87
2022/11/16 05:32:03;;;;;;;39.03;22.23;;;8.30;99.90;;;;;;5061266;28;20037;-87
2022/11/16 05:34:29;;;;;;;41.65;23.20;;;8.30;99.90;;;;;;5063118;28;20362;-88
2022/11/16 05:36:55;;;;;;;41.67;22.83;;;8.30;99.90;;;;;;5057746;28;20029;-88
2022/11/16 05:39:21;;;;;;;41.90;21.63;;;8.30;99.90;;;;;;5058794;28;20035;-83
2022/11/16 05:41:48;;;;;;;35.17;21.58;;;8.30;99.90;;;;;;5063929;28;20081;-88
2022/11/16 05:44:14;;;;;;;35.78;20.65;;;8.30;99.90;;;;;;5061496;28;20401;-88
2022/11/16 05:46:41;;;;;;;45.67;21.60;;;8.20;99.90;;;;;;5068720;28;20024;-88
2022/11/16 05:49:07;;;;;;;42.47;23.02;;;8.20;99.90;;;;;;5063938;28;20045;-82
2022/11/16 05:51:37;;;;;;;36.75;20.30;;;8.20;99.90;;;;;;5058436;28;20500;-87
2022/11/16 05:54:03;;;;;;;36.10;20.90;;;8.10;99.90;;;;;;5058633;28;20037;-89
2022/11/16 05:56:29;;;;;;;34.90;19.88;;;8.10;99.90;;;;;;5063284;28;20070;-87
2022/11/16 05:58:55;;;;;;;31.63;17.83;;;8.10;99.90;;;;;;5058587;28;20064;-87
2022/11/16 06:01:25;;;;;;;43.65;19.13;;;8.20;99.90;;;;;;5057453;28;20434;-82
2022/11/16 06:03:51;;;;;;;39.08;20.65;;;8.20;99.90;;;;;;5059310;28;20101;-87
2022/11/16 06:06:16;;;;;;;30.65;18.60;;;8.20;99.90;;;;;;5059134;28;20499;-88
2022/11/16 06:08:42;;;;;;;39.92;21.38;;;8.20;99.90;;;;;;5059037;28;20047;-88
2022/11/16 06:11:09;;;;;;;40.15;23.08;;;8.20;99.90;;;;;;5068574;28;20020;-88
2022/11/16 06:13:36;;;;;;;34.58;19.15;;;8.10;99.90;;;;;;5048922;28;20029;-83
2022/11/16 06:16:03;;;;;;;32.47;19.92;;;8.10;99.90;;;;;;5058774;28;20024;-87
2022/11/16 06:18:29;;;;;;;35.10;20.77;;;8.10;99.90;;;;;;5066476;28;20056;-88
2022/11/16 06:20:55;;;;;;;28.77;17.70;;;8.00;99.90;;;;;;5064710;28;20274;-87
2022/11/16 06:23:21;;;;;;;32.30;18.52;;;8.00;99.90;;;;;;5061903;28;20024;-87
2022/11/16 06:25:54;;;;;;;29.30;18.17;;;7.90;99.90;;;;;;5058129;28;20041;-82
2022/11/16 06:28:19;;;;;;;25.73;16.33;;;7.90;99.90;;;;;;5058703;28;20513;-89
2022/11/16 06:30:47;;;;;;;28.63;16.48;;;7.90;99.90;;;;;;5059005;28;20468;-88
2022/11/16 06:33:12;;;;;;;31.02;17.25;;;7.90;99.90;;;;;;5058399;28;20032;-89
2022/11/16 06:35:38;;;;;;;30.40;17.50;;;7.90;99.90;;;;;;5059835;28;20035;-88
2022/11/16 06:38:04;;;;;;;27.08;16.92;;;7.90;99.90;;;;;;5059847;28;20033;-87
2022/11/16 06:40:31;;;;;;;33.67;20.70;;;7.90;99.90;;;;;;5058564;28;20124;-88
2022/11/16 06:42:57;;;;;;;35.00;20.63;;;7.90;99.90;;;;;;5058504;28;20033;-88
2022/11/16 06:45:22;;;;;;;39.13;21.63;;;7.90;99.90;;;;;;5064963;28;20146;-87
2022/11/16 06:47:48;;;;;;;32.13;19.40;;;7.90;99.90;;;;;;5057763;28;20170;-88
2022/11/16 06:50:17;;;;;;;33.92;20.88;;;7.80;99.90;;;;;;5057439;28;20474;-88
2022/11/16 06:52:48;;;;;;;30.83;19.02;;;7.80;99.90;;;;;;5057402;28;20033;-88
2022/11/16 06:55:14;;;;;;;35.50;21.45;;;7.80;99.90;;;;;;5064383;28;20033;-88
2022/11/16 06:57:40;;;;;;;34.17;20.30;;;7.80;99.90;;;;;;5067738;28;20033;-87
2022/11/16 07:00:07;;;;;;;35.72;19.55;;;7.80;99.90;;;;;;5067868;28;20202;-85
2022/11/16 07:02:36;;;;;;;29.60;17.20;;;7.70;99.90;;;;;;5057098;28;20044;-88
2022/11/16 07:05:02;;;;;;;33.10;18.05;;;7.70;99.90;;;;;;5057813;28;20481;-88
2022/11/16 07:07:28;;;;;;;38.45;20.35;;;7.70;99.90;;;;;;5057515;28;20548;-88
2022/11/16 07:09:53;;;;;;;32.88;19.17;;;7.70;99.90;;;;;;5057410;28;20041;-87
2022/11/16 07:12:19;;;;;;;30.25;18.33;;;7.70;99.90;;;;;;5057483;28;20489;-88
2022/11/16 07:14:45;;;;;;;30.83;19.33;;;7.80;99.90;;;;;;5056649;28;20029;-88
2022/11/16 07:17:10;;;;;;;34.13;20.70;;;7.70;99.90;;;;;;5062807;28;20052;-88
2022/11/16 07:19:36;;;;;;;35.97;19.35;;;7.70;99.90;;;;;;5058269;28;20472;-88
2022/11/16 07:22:02;;;;;;;28.13;17.40;;;7.70;99.90;;;;;;5067560;28;20040;-89
2022/11/16 07:24:28;;;;;;;36.38;18.30;;;7.70;99.90;;;;;;5058632;28;20076;-87
2022/11/16 07:26:53;;;;;;;28.92;16.58;;;7.70;99.90;;;;;;5057055;28;20044;-87
2022/11/16 07:29:20;;;;;;;32.65;20.38;;;7.70;99.90;;;;;;5067508;28;20503;-88
2022/11/16 07:31:45;;;;;;;32.63;20.75;;;7.70;99.90;;;;;;5061109;28;20024;-88
2022/11/16 07:34:11;;;;;;;31.13;19.85;;;7.60;99.90;;;;;;5055005;28;20039;-89
2022/11/16 07:36:37;;;;;;;35.92;20.88;;;7.60;99.90;;;;;;5059095;28;20445;-84
2022/11/16 07:39:02;;;;;;;28.75;18.92;;;7.60;99.90;;;;;;5057229;28;20033;-88
2022/11/16 07:41:28;;;;;;;28.42;18.65;;;7.50;99.90;;;;;;5056558;28;20104;-88
2022/11/16 07:43:53;;;;;;;41.55;23.15;;;7.50;99.90;;;;;;5057402;28;20056;-87
2022/11/16 07:46:22;;;;;;;38.78;21.02;;;7.50;99.90;;;;;;5057242;28;20033;-89
2022/11/16 07:48:47;;;;;;;31.33;19.63;;;7.50;99.90;;;;;;5057433;28;20037;-88
2022/11/16 07:51:15;;;;;;;32.75;18.65;;;7.50;99.90;;;;;;5060680;28;20387;-89
2022/11/16 07:53:43;;;;;;;37.10;20.98;;;7.50;99.90;;;;;;5050663;28;20036;-87
2022/11/16 07:56:10;;;;;;;40.05;22.33;;;7.50;99.90;;;;;;5061626;28;20032;-88
2022/11/16 07:58:36;;;;;;;37.00;21.52;;;7.50;99.90;;;;;;5061502;28;20505;-88
2022/11/16 08:01:08;;;;;;;33.50;20.30;;;7.50;99.90;;;;;;5061452;28;20041;-89
2022/11/16 08:03:35;;;;;;;32.78;19.05;;;7.50;99.90;;;;;;5070562;28;20059;-87
2022/11/16 08:06:02;;;;;;;35.45;21.63;;;7.50;99.90;;;;;;5070798;28;20025;-89
2022/11/16 08:08:28;;;;;;;36.58;20.27;;;7.40;99.90;;;;;;5058890;28;20084;-88
2022/11/16 08:11:02;;;;;;;32.40;20.58;;;7.40;99.90;;;;;;5064906;28;20025;-88
2022/11/16 08:13:30;;;;;;;32.17;19.05;;;7.50;99.90;;;;;;5062080;28;20032;-88
2022/11/16 08:16:02;;;;;;;33.30;20.20;;;7.40;99.90;;;;;;5070686;28;20036;-89
2022/11/16 08:18:30;;;;;;;33.03;21.48;;;7.40;99.90;;;;;;5070722;28;20106;-88
2022/11/16 08:21:00;;;;;;;40.45;23.48;;;7.40;99.90;;;;;;5070351;28;20051;-88
2022/11/16 08:23:26;;;;;;;41.85;24.67;;;7.40;99.90;;;;;;5060990;28;20036;-89
2022/11/16 08:26:00;;;;;;;39.65;23.08;;;7.40;99.90;;;;;;5060751;28;20048;-88
2022/11/16 08:28:27;;;;;;;41.15;24.65;;;7.40;99.90;;;;;;5061269;28;20263;-88
2022/11/16 08:30:53;;;;;;;40.05;24.60;;;7.40;99.90;;;;;;5059504;28;20112;-87
2022/11/16 08:33:20;;;;;;;40.30;24.75;;;7.30;99.90;;;;;;5060199;28;20524;-89
2022/11/16 08:35:47;;;;;;;39.63;23.42;;;7.50;99.90;;;;;;5060190;28;20111;-89
2022/11/16 08:38:13;;;;;;;44.90;25.75;;;7.40;99.90;;;;;;5059899;28;20025;-89
2022/11/16 08:40:39;;;;;;;45.15;25.85;;;7.30;99.90;;;;;;5060005;28;20028;-88
2022/11/16 08:43:04;;;;;;;39.83;24.35;;;7.30;99.90;;;;;;5059069;28;20056;-85
2022/11/16 08:45:30;;;;;;;37.83;23.15;;;7.30;99.90;;;;;;5060326;28;20134;-88
2022/11/16 08:47:56;;;;;;;49.45;28.58;;;7.30;99.90;;;;;;5066908;28;20028;-88
2022/11/16 08:50:22;;;;;;;40.13;25.90;;;7.30;99.90;;;;;;5065840;28;20024;-86
2022/11/16 08:52:48;;;;;;;44.97;27.10;;;7.30;99.90;;;;;;5065834;28;20025;-88
2022/11/16 08:55:16;;;;;;;49.97;27.88;;;7.30;99.90;;;;;;5059310;28;20029;-88
2022/11/16 08:57:41;;;;;;;54.88;28.77;;;7.30;99.90;;;;;;5060445;28;20370;-87
2022/11/16 09:00:08;;;;;;;54.55;29.00;;;7.30;99.90;;;;;;5059821;28;20029;-88
2022/11/16 09:02:33;;;;;;;47.65;27.52;;;7.30;99.90;;;;;;5059499;28;20103;-88
2022/11/16 09:04:59;;;;;;;47.33;28.02;;;7.30;99.90;;;;;;5061629;28;20439;-88
2022/11/16 09:07:25;;;;;;;51.42;29.10;;;7.30;99.90;;;;;;5063980;28;20073;-89
2022/11/16 09:09:50;;;;;;;50.90;30.05;;;7.30;99.90;;;;;;5068788;28;20045;-88
2022/11/16 09:12:16;;;;;;;49.88;30.02;;;7.30;99.90;;;;;;5069740;28;20029;-88
2022/11/16 09:14:42;;;;;;;55.25;30.40;;;7.20;99.90;;;;;;5060788;28;20035;-88
2022/11/16 09:17:07;;;;;;;51.03;29.52;;;7.20;99.90;;;;;;5060044;28;20021;-88
2022/11/16 09:19:33;;;;;;;52.90;29.13;;;7.20;99.90;;;;;;5065718;28;20028;-87
2022/11/16 09:21:59;;;;;;;57.67;33.13;;;7.20;99.90;;;;;;5068671;28;20033;-88
2022/11/16 09:24:24;;;;;;;61.65;33.60;;;7.20;99.90;;;;;;5069429;28;20072;-89
2022/11/16 09:26:50;;;;;;;61.38;36.63;;;7.20;99.90;;;;;;5069647;28;20105;-86
2022/11/16 09:29:15;;;;;;;64.07;37.40;;;7.20;99.90;;;;;;5069353;28;20033;-89
2022/11/16 09:31:41;;;;;;;57.28;34.00;;;7.20;99.90;;;;;;5069332;28;20071;-89
2022/11/16 09:34:07;;;;;;;57.17;32.95;;;7.20;99.90;;;;;;5065245;28;20021;-88
2022/11/16 09:36:33;;;;;;;51.78;29.85;;;7.20;99.90;;;;;;5058112;28;20078;-88
2022/11/16 09:38:59;;;;;;;47.78;27.98;;;7.20;99.90;;;;;;5058462;28;20029;-89
2022/11/16 09:41:43;;;;;;;43.60;25.90;;;7.20;99.90;;;;;;5059035;28;20035;-88
2022/11/16 09:44:26;;;;;;;53.35;30.63;;;7.20;99.90;;;;;;5058406;28;20479;-87
2022/11/16 09:46:57;;;;;;;46.28;28.15;;;7.20;99.90;;;;;;5058694;28;20029;-86
2022/11/16 09:49:39;;;;;;;46.55;26.73;;;7.20;99.90;;;;;;5063976;28;20394;-89
2022/11/16 09:52:17;;;;;;;45.10;25.98;;;7.20;99.90;;;;;;5059838;28;20039;-86
2022/11/16 09:54:46;;;;;;;40.28;24.45;;;7.20;99.90;;;;;;5059892;28;20112;-89
2022/11/16 09:57:17;;;;;;;38.22;22.50;;;7.20;99.90;;;;;;5059109;28;20035;-88
2022/11/16 09:59:50;;;;;;;45.97;26.20;;;7.20;99.90;;;;;;5059089;28;20393;-89
2022/11/16 10:02:25;;;;;;;45.50;27.10;;;7.30;99.90;;;;;;5068606;28;20032;-89
2022/11/16 10:04:58;;;;;;;41.50;24.92;;;7.30;99.90;;;;;;5060254;28;20021;-89
2022/11/16 10:07:45;;;;;;;48.17;28.25;;;7.30;99.90;;;;;;5059964;28;20123;-90
2022/11/16 10:10:29;;;;;;;40.85;24.35;;;7.40;99.90;;;;;;5068179;28;20046;-86
2022/11/16 10:13:10;;;;;;;44.63;25.98;;;7.40;99.90;;;;;;5066865;28;20041;-89
2022/11/16 10:15:50;;;;;;;41.05;24.95;;;7.40;99.90;;;;;;5059371;28;20033;-88
2022/11/16 10:18:38;;;;;;;45.88;28.08;;;7.40;99.90;;;;;;5058746;28;20036;-88
2022/11/16 10:21:33;;;;;;;48.90;28.52;;;7.40;99.90;;;;;;5054089;28;20025;-88
2022/11/16 10:24:24;;;;;;;42.85;26.20;;;7.50;99.90;;;;;;5039012;28;20032;-88
2022/11/16 10:26:58;;;;;;;46.28;28.25;;;7.50;99.90;;;;;;5058126;28;20031;-89
2022/11/16 10:29:48;;;;;;;44.95;26.40;;;7.50;99.90;;;;;;5061872;28;20043;-88
2022/11/16 10:32:27;;;;;;;46.55;27.05;;;7.60;99.90;;;;;;5058233;28;20039;-87
2022/11/16 10:35:12;;;;;;;37.22;23.98;;;7.60;99.90;;;;;;5059220;28;20071;-87
2022/11/16 10:37:43;;;;;;;41.42;25.45;;;7.60;99.90;;;;;;5061903;28;20543;-87
2022/11/16 10:40:22;;;;;;;41.85;23.80;;;7.70;99.90;;;;;;5067821;28;20393;-88
2022/11/16 10:43:12;;;;;;;40.33;24.23;;;7.70;99.90;;;;;;5058430;28;20530;-88
2022/11/16 10:46:08;;;;;;;36.28;21.73;;;7.70;99.90;;;;;;5057443;28;20039;-88
2022/11/16 10:48:41;;;;;;;41.92;24.63;;;7.70;99.90;;;;;;5068047;28;20044;-88
2022/11/16 10:51:08;;;;;;;40.60;24.05;;;7.70;99.90;;;;;;5064352;28;20039;-88
2022/11/16 10:53:35;;;;;;;40.67;23.52;;;7.70;99.90;;;;;;5058100;28;20032;-88
2022/11/16 10:56:31;;;;;;;36.08;23.60;;;7.70;99.90;;;;;;5067695;28;20032;-87
2022/11/16 10:59:03;;;;;;;34.70;21.38;;;7.80;99.90;;;;;;5061172;28;20016;-87
2022/11/16 11:01:43;;;;;;;35.30;20.98;;;7.80;99.90;;;;;;5066571;28;20107;-87
2022/11/16 11:04:30;;;;;;;36.35;22.13;;;7.80;99.90;;;;;;5057473;28;20489;-87
2022/11/16 11:07:14;;;;;;;30.70;20.05;;;7.80;99.90;;;;;;5057582;28;20112;-87
2022/11/16 11:09:42;;;;;;;34.95;21.63;;;7.80;99.90;;;;;;5061922;28;20044;-87
2022/11/16 11:12:37;;;;;;;36.42;20.13;;;7.80;99.90;;;;;;5058239;28;20033;-87
2022/11/16 11:15:12;;;;;;;41.08;25.60;;;7.70;99.90;;;;;;5058364;28;20032;-87
2022/11/16 11:17:43;;;;;;;34.83;23.27;;;7.80;99.90;;;;;;5062807;28;20032;-87
2022/11/16 11:20:15;;;;;;;39.13;24.80;;;7.80;99.90;;;;;;5057002;28;20036;-86
2022/11/16 11:22:42;;;;;;;53.28;27.08;;;7.80;99.90;;;;;;5057239;28;20059;-87
2022/11/16 11:25:21;;;;;;;43.17;27.15;;;7.80;99.90;;;;;;5059389;28;20057;-86
2022/11/16 11:27:48;;;;;;;37.35;23.67;;;7.80;99.90;;;;;;5062589;28;20029;-87
2022/11/16 11:30:21;;;;;;;42.85;25.90;;;7.80;99.90;;;;;;5061735;28;20401;-86
2022/11/16 11:32:47;;;;;;;43.03;25.83;;;7.80;99.90;;;;;;5067517;28;20024;-86
2022/11/16 11:35:31;;;;;;;51.63;29.13;;;7.90;99.90;;;;;;5065767;28;20032;-87
2022/11/16 11:38:00;;;;;;;43.90;27.40;;;7.80;99.90;;;;;;5061049;28;20100;-86
2022/11/16 11:40:29;;;;;;;43.85;25.20;;;7.90;99.90;;;;;;5060842;28;20028;-85
2022/11/16 11:42:56;;;;;;;45.42;28.90;;;7.80;99.90;;;;;;5061088;28;20025;-86
2022/11/16 11:45:50;;;;;;;48.63;28.25;;;7.80;99.90;;;;;;5060801;28;20091;-86
2022/11/16 11:48:40;;;;;;;47.20;29.65;;;7.80;99.90;;;;;;5060988;28;20108;-86
2022/11/16 11:51:21;;;;;;;42.30;26.35;;;7.80;99.90;;;;;;5062074;28;20063;-85
2022/11/16 11:53:58;;;;;;;44.33;27.92;;;7.80;99.90;;;;;;5061700;28;20028;-84
2022/11/16 11:56:26;;;;;;;65.47;36.58;;;7.80;99.90;;;;;;5062498;28;20374;-86
2022/11/16 11:58:52;;;;;;;53.38;31.65;;;7.80;99.90;;;;;;5067759;28;20029;-86
2022/11/16 12:01:40;;;;;;;50.88;29.75;;;7.70;99.90;;;;;;5060648;28;20351;-86
2022/11/16 12:04:27;;;;;;;45.45;27.98;;;7.80;99.90;;;;;;5060887;28;20107;-85
2022/11/16 12:07:30;;;;;;;45.92;28.45;;;7.70;99.90;;;;;;5060801;28;20389;-85
2022/11/16 12:09:59;;;;;;;49.83;29.48;;;7.80;99.90;;;;;;5068522;28;20036;-86
2022/11/16 12:12:39;;;;;;;46.67;27.05;;;7.70;99.90;;;;;;5069297;28;20035;-86
2022/11/16 12:15:26;;;;;;;56.65;32.45;;;7.70;99.90;;;;;;5060485;28;20025;-85
2022/11/16 12:18:30;;;;;;;48.85;29.77;;;7.70;99.90;;;;;;5062072;28;20029;-85
2022/11/16 12:21:12;;;;;;;49.20;28.95;;;7.70;99.90;;;;;;5044693;28;20120;-86
2022/11/16 12:24:04;;;;;;;59.83;33.70;;;7.70;99.90;;;;;;5060577;28;20045;-83
2022/11/16 12:26:42;;;;;;;53.90;31.77;;;7.70;99.90;;;;;;5059955;28;20055;-85
2022/11/16 12:29:22;;;;;;;51.47;30.67;;;7.70;99.90;;;;;;5059872;28;20037;-84
2022/11/16 12:32:14;;;;;;;50.38;29.80;;;7.70;99.90;;;;;;5060296;28;20029;-86
2022/11/16 12:35:01;;;;;;;42.85;28.88;;;7.70;99.90;;;;;;5032427;28;20182;-85
2022/11/16 12:37:48;;;;;;;43.17;25.33;;;7.60;99.90;;;;;;5065169;28;20032;-84
2022/11/16 12:40:49;;;;;;;44.05;28.08;;;7.60;99.90;;;;;;5065042;28;20124;-84
2022/11/16 12:43:30;;;;;;;44.33;27.92;;;7.60;99.90;;;;;;5041692;28;20323;-85
2022/11/16 12:46:05;;;;;;;52.60;29.83;;;7.60;99.90;;;;;;5067573;28;20125;-84
2022/11/16 12:48:46;;;;;;;49.78;29.45;;;7.60;99.90;;;;;;5065372;28;20032;-85
2022/11/16 12:51:36;;;;;;;48.55;27.95;;;7.60;99.90;;;;;;5066437;28;20033;-84
2022/11/16 12:54:10;;;;;;;61.97;32.05;;;7.50;99.90;;;;;;5057791;28;20892;-84
2022/11/16 12:56:52;;;;;;;66.80;36.10;;;7.50;99.90;;;;;;5060011;28;20040;-84
2022/11/16 12:59:52;;;;;;;57.38;34.47;;;7.50;99.90;;;;;;5056918;28;20029;-84
2022/11/16 13:02:32;;;;;;;49.90;29.70;;;7.50;99.90;;;;;;5063785;28;20024;-84
2022/11/16 13:05:23;;;;;;;47.03;27.58;;;7.50;99.90;;;;;;5063064;28;20163;-84
2022/11/16 13:07:56;;;;;;;44.92;27.02;;;7.50;99.90;;;;;;5054715;28;20036;-84
2022/11/16 13:10:28;;;;;;;42.55;26.30;;;7.50;99.90;;;;;;5059525;28;20044;-83
2022/11/16 13:12:59;;;;;;;41.58;26.33;;;7.50;99.90;;;;;;5057471;28;20058;-84
2022/11/16 13:15:33;;;;;;;44.08;26.88;;;7.50;99.90;;;;;;5065464;28;20033;-84
2022/11/16 13:18:02;;;;;;;42.25;27.20;;;7.50;99.90;;;;;;5060018;28;20313;-85
2022/11/16 13:20:43;;;;;;;42.60;24.90;;;7.50;99.90;;;;;;5064071;28;20028;-84
2022/11/16 13:23:17;;;;;;;42.50;26.20;;;7.50;99.90;;;;;;5059709;28;20473;-84
2022/11/16 13:25:52;;;;;;;36.45;23.48;;;7.50;99.90;;;;;;5059007;28;20485;-83
2022/11/16 13:28:25;;;;;;;47.80;28.80;;;7.50;99.90;;;;;;5059370;28;20032;-84
2022/11/16 13:31:08;;;;;;;49.28;30.83;;;7.50;99.90;;;;;;5059122;28;20033;-83
2022/11/16 13:33:43;;;;;;;48.28;29.60;;;7.50;99.90;;;;;;5058681;28;20041;-84
2022/11/16 13:36:30;;;;;;;39.28;24.77;;;7.50;99.90;;;;;;5064249;28;20029;-84
2022/11/16 13:38:57;;;;;;;47.33;26.55;;;7.50;99.90;;;;;;5053843;28;20052;-83
2022/11/16 13:41:33;;;;;;;42.50;26.85;;;7.50;99.90;;;;;;5062692;28;20021;-83
2022/11/16 13:43:59;;;;;;;45.20;26.48;;;7.50;99.90;;;;;;5064996;28;20021;-84